Time;durP1;ratioP1;P1;durP2;ratioP2;P2;SDS_P1;SDS_P2;PMS_P1;PMS_P2;Temp;Humidity;BMP_temperature;BMP_pressure;BME280_temperature;BME280_humidity;BME280_pressure;Samples;Min_cycle;Max_cycle;Signal;HPM_P1;HPM_P2
2022/02/23 00:01:33;;;;;;;7.05;2.60;;;-3.00;99.90;;;;;;4992955;28;20132;-65
2022/02/23 00:04:01;;;;;;;6.72;3.35;;;-3.00;99.90;;;;;;4995861;28;20069;-68
2022/02/23 00:06:28;;;;;;;3.13;2.03;;;-3.00;99.90;;;;;;4994483;28;20140;-67
2022/02/23 00:08:55;;;;;;;5.60;2.33;;;-3.00;99.90;;;;;;4995834;28;20131;-66
2022/02/23 00:11:22;;;;;;;4.40;1.98;;;-3.00;99.90;;;;;;4992914;28;21138;-67
2022/02/23 00:13:49;;;;;;;3.85;2.25;;;-3.00;99.90;;;;;;4995946;28;20145;-64
2022/02/23 00:16:16;;;;;;;4.10;2.00;;;-3.00;99.90;;;;;;4994235;28;20076;-69
2022/02/23 00:18:43;;;;;;;2.47;2.28;;;-3.00;99.90;;;;;;4994802;28;20053;-67
2022/02/23 00:21:10;;;;;;;3.25;2.10;;;-2.90;99.90;;;;;;4992728;28;20046;-68
2022/02/23 00:23:37;;;;;;;2.95;2.33;;;-2.90;99.90;;;;;;4995188;28;20188;-68
2022/02/23 00:26:04;;;;;;;4.00;2.60;;;-2.90;99.90;;;;;;4994480;28;20054;-65
2022/02/23 00:28:31;;;;;;;3.90;1.92;;;-2.90;99.90;;;;;;4995258;28;20069;-64
2022/02/23 00:30:58;;;;;;;3.28;2.03;;;-2.90;99.90;;;;;;4994811;28;20132;-64
2022/02/23 00:33:25;;;;;;;4.87;2.33;;;-2.80;99.90;;;;;;4993266;28;20134;-65
2022/02/23 00:35:52;;;;;;;2.10;1.60;;;-2.80;99.90;;;;;;4995839;28;20053;-67
2022/02/23 00:38:19;;;;;;;4.40;2.03;;;-2.80;99.90;;;;;;4993998;28;20057;-64
2022/02/23 00:40:47;;;;;;;1.58;1.48;;;-2.80;99.90;;;;;;4995393;28;20053;-67
2022/02/23 00:43:14;;;;;;;7.47;1.70;;;-2.70;99.90;;;;;;4992407;28;20164;-64
2022/02/23 00:45:41;;;;;;;3.90;1.80;;;-2.70;99.90;;;;;;4994937;28;20468;-67
2022/02/23 00:48:08;;;;;;;2.92;1.55;;;-2.70;99.90;;;;;;4994002;28;20137;-65
2022/02/23 00:50:35;;;;;;;4.13;2.75;;;-2.60;99.90;;;;;;4994893;28;20559;-67
2022/02/23 00:53:03;;;;;;;8.65;1.67;;;-2.60;99.90;;;;;;4993973;28;20149;-67
2022/02/23 00:55:30;;;;;;;3.25;1.73;;;-2.50;99.90;;;;;;4993052;28;20140;-65
2022/02/23 00:57:57;;;;;;;3.60;1.42;;;-2.50;99.90;;;;;;4994420;28;20073;-65
2022/02/23 01:00:24;;;;;;;2.15;1.60;;;-2.50;99.90;;;;;;4994174;28;20060;-64
2022/02/23 01:02:54;;;;;;;6.88;1.75;;;-2.50;99.90;;;;;;4994756;28;20539;-67
2022/02/23 01:05:21;;;;;;;1.95;1.35;;;-2.40;99.90;;;;;;4992450;28;20650;-69
2022/02/23 01:07:48;;;;;;;2.40;1.27;;;-2.40;99.90;;;;;;4993323;28;20053;-69
2022/02/23 01:10:15;;;;;;;2.92;1.65;;;-2.40;99.90;;;;;;4993891;28;20049;-69
2022/02/23 01:12:42;;;;;;;2.78;1.60;;;-2.40;99.90;;;;;;4993603;28;20266;-67
2022/02/23 01:15:10;;;;;;;1.67;1.02;;;-2.30;99.90;;;;;;4993866;28;20081;-66
2022/02/23 01:17:38;;;;;;;3.13;1.17;;;-2.30;99.90;;;;;;4972729;28;21624;-65
2022/02/23 01:20:06;;;;;;;1.67;1.40;;;-2.30;99.90;;;;;;5005983;28;20868;-64
2022/02/23 01:22:34;;;;;;;3.47;1.73;;;-2.30;99.90;;;;;;4973004;28;20046;-67
2022/02/23 01:25:02;;;;;;;6.50;1.50;;;-2.30;99.90;;;;;;4976037;28;20090;-66
2022/02/23 01:27:30;;;;;;;4.95;2.17;;;-2.20;99.90;;;;;;4990629;28;20115;-67
2022/02/23 01:29:58;;;;;;;3.05;1.98;;;-2.20;99.90;;;;;;4995156;28;20199;-66
2022/02/23 01:32:25;;;;;;;6.32;2.33;;;-2.20;99.90;;;;;;4992691;28;20038;-67
2022/02/23 01:34:52;;;;;;;4.57;1.85;;;-2.20;99.90;;;;;;4995153;28;20176;-64
2022/02/23 01:37:20;;;;;;;4.65;1.17;;;-2.20;99.90;;;;;;4990391;28;20614;-65
2022/02/23 01:39:47;;;;;;;2.35;1.50;;;-2.10;99.90;;;;;;4995021;28;20073;-65
2022/02/23 01:42:14;;;;;;;2.50;1.45;;;-2.10;99.90;;;;;;4992198;28;20058;-66
2022/02/23 01:44:41;;;;;;;2.90;1.52;;;-2.00;99.90;;;;;;4995089;28;20158;-66
2022/02/23 01:47:08;;;;;;;2.25;1.35;;;-2.00;99.90;;;;;;4993337;28;21437;-67
2022/02/23 01:49:35;;;;;;;3.13;1.65;;;-1.90;99.90;;;;;;4991716;28;20143;-65
2022/02/23 01:52:04;;;;;;;2.72;1.60;;;-1.90;99.90;;;;;;4940880;28;20677;-64
2022/02/23 01:54:38;;;;;;;1.83;1.47;;;-1.90;99.90;;;;;;1567078;28;10002836;-66
2022/02/23 01:57:07;;;;;;;2.90;1.13;;;-1.80;99.90;;;;;;4645761;28;10001683;-67
2022/02/23 01:59:34;;;;;;;2.03;1.40;;;-1.80;99.90;;;;;;4992327;28;20054;-64
2022/02/23 02:02:02;;;;;;;2.90;1.23;;;-1.80;99.90;;;;;;5022654;28;20089;-65
2022/02/23 02:04:30;;;;;;;4.38;1.27;;;-1.80;99.90;;;;;;4993606;28;20057;-63
2022/02/23 02:06:56;;;;;;;2.50;1.50;;;-1.80;99.90;;;;;;4993870;28;20521;-67
2022/02/23 02:09:23;;;;;;;2.47;1.20;;;-1.80;99.90;;;;;;4991896;28;20142;-66
2022/02/23 02:11:50;;;;;;;1.83;1.40;;;-1.70;99.90;;;;;;4993556;28;20061;-65
2022/02/23 02:14:17;;;;;;;1.33;1.17;;;-1.70;99.90;;;;;;4993193;28;20080;-65
2022/02/23 02:16:44;;;;;;;7.00;2.03;;;-1.70;99.90;;;;;;4994064;28;20077;-67
2022/02/23 02:19:13;;;;;;;1.55;1.00;;;-1.70;99.90;;;;;;4991207;28;20077;-64
2022/02/23 02:22:10;;;;;;;2.50;1.70;;;-1.70;99.90;;;;;;4994619;28;20052;-67
2022/02/23 02:24:39;;;;;;;1.83;1.33;;;-1.60;99.90;;;;;;4989496;28;20130;-64
2022/02/23 02:27:14;;;;;;;8.48;1.70;;;-1.60;99.90;;;;;;4997606;28;20084;-63
2022/02/23 02:29:42;;;;;;;2.45;1.55;;;-1.60;99.90;;;;;;4980584;28;20137;-68
2022/02/23 02:32:10;;;;;;;2.92;1.25;;;-1.60;99.90;;;;;;4982110;28;20070;-64
2022/02/23 02:34:38;;;;;;;2.65;1.08;;;-1.50;99.90;;;;;;4987915;28;20141;-64
2022/02/23 02:37:06;;;;;;;3.45;1.48;;;-1.50;99.90;;;;;;4994583;28;20158;-67
2022/02/23 02:39:34;;;;;;;2.33;1.45;;;-1.50;99.90;;;;;;4996380;28;20050;-66
2022/02/23 02:42:03;;;;;;;3.30;1.73;;;-1.50;99.90;;;;;;4996231;28;20053;-64
2022/02/23 02:44:30;;;;;;;3.65;2.20;;;-1.50;99.90;;;;;;4997370;28;20105;-67
2022/02/23 02:46:57;;;;;;;1.42;1.33;;;-1.50;99.90;;;;;;4994222;28;20054;-64
2022/02/23 02:49:25;;;;;;;2.22;1.33;;;-1.50;99.90;;;;;;4996074;28;20722;-69
2022/02/23 02:51:52;;;;;;;5.63;1.65;;;-1.40;99.90;;;;;;4996043;28;20080;-64
2022/02/23 02:54:19;;;;;;;1.42;1.33;;;-1.40;99.90;;;;;;4996970;28;20049;-67
2022/02/23 02:56:46;;;;;;;2.97;1.60;;;-1.40;99.90;;;;;;4996136;28;20088;-65
2022/02/23 02:59:13;;;;;;;5.22;1.75;;;-1.40;99.90;;;;;;4994887;28;20052;-67
2022/02/23 03:01:40;;;;;;;1.30;1.10;;;-1.30;99.90;;;;;;4996462;28;20460;-68
2022/02/23 03:04:07;;;;;;;2.03;1.05;;;-1.30;99.90;;;;;;4994623;28;20137;-68
2022/02/23 03:06:35;;;;;;;1.38;0.85;;;-1.30;99.90;;;;;;4996795;28;20139;-66
2022/02/23 03:09:04;;;;;;;1.30;1.02;;;-1.20;99.90;;;;;;4994278;28;20073;-64
2022/02/23 03:11:31;;;;;;;1.23;1.00;;;-1.20;99.90;;;;;;4994185;28;20100;-65
2022/02/23 03:13:58;;;;;;;2.13;1.33;;;-1.10;99.90;;;;;;4995865;28;20161;-65
2022/02/23 03:16:25;;;;;;;3.30;1.50;;;-1.10;99.90;;;;;;4994815;28;20085;-69
2022/02/23 03:18:52;;;;;;;2.83;0.93;;;-1.10;99.90;;;;;;4993066;28;20057;-63
2022/02/23 03:21:19;;;;;;;3.60;1.95;;;-1.10;99.90;;;;;;4995058;28;20125;-66
2022/02/23 03:23:46;;;;;;;2.17;1.33;;;-1.00;99.90;;;;;;4993749;28;20092;-64
2022/02/23 03:26:13;;;;;;;1.45;1.17;;;-1.00;99.90;;;;;;4995489;28;20171;-68
2022/02/23 03:28:42;;;;;;;1.25;0.90;;;-1.00;99.90;;;;;;4994910;28;20143;-66
2022/02/23 03:31:12;;;;;;;1.50;1.40;;;-0.90;99.90;;;;;;4995325;28;20131;-63
2022/02/23 03:33:42;;;;;;;1.70;1.50;;;-0.90;99.90;;;;;;4994534;28;20042;-66
2022/02/23 03:36:13;;;;;;;1.92;1.40;;;-0.90;99.90;;;;;;4994244;28;20045;-66
2022/02/23 03:38:41;;;;;;;2.22;1.25;;;-0.80;99.90;;;;;;4994450;28;20461;-66
2022/02/23 03:41:08;;;;;;;1.95;1.40;;;-0.80;99.90;;;;;;4995427;28;20089;-68
2022/02/23 03:43:36;;;;;;;1.50;1.30;;;-0.80;99.90;;;;;;4974952;28;20125;-64
2022/02/23 03:46:04;;;;;;;2.72;1.65;;;-0.80;99.90;;;;;;4976212;28;20165;-64
2022/02/23 03:48:31;;;;;;;2.22;1.75;;;-0.80;99.90;;;;;;4976252;28;20121;-66
2022/02/23 03:50:58;;;;;;;5.45;1.77;;;-0.70;99.90;;;;;;4976066;28;20749;-68
2022/02/23 03:53:25;;;;;;;2.28;1.55;;;-0.70;99.90;;;;;;4974488;28;20054;-64
2022/02/23 03:55:52;;;;;;;5.30;1.70;;;-0.70;99.90;;;;;;4975089;28;20185;-69
2022/02/23 03:58:19;;;;;;;1.63;1.40;;;-0.70;99.90;;;;;;4976226;28;20077;-69
2022/02/23 04:00:45;;;;;;;3.47;1.52;;;-0.70;99.90;;;;;;4975681;28;20172;-63
2022/02/23 04:03:13;;;;;;;2.88;1.20;;;-0.70;99.90;;;;;;4973145;28;20604;-66
2022/02/23 04:05:42;;;;;;;2.60;1.30;;;-0.60;99.90;;;;;;4976156;28;20080;-67
2022/02/23 04:08:09;;;;;;;3.13;1.33;;;-0.60;99.90;;;;;;4974964;28;20128;-66
2022/02/23 04:10:36;;;;;;;2.22;1.50;;;-0.60;99.90;;;;;;4975672;28;20050;-66
2022/02/23 04:13:04;;;;;;;3.72;1.40;;;-0.70;99.90;;;;;;4975157;28;20778;-66
2022/02/23 04:15:31;;;;;;;2.10;1.48;;;-0.60;99.90;;;;;;4974255;28;20267;-65
2022/02/23 04:17:58;;;;;;;2.47;1.42;;;-0.60;99.90;;;;;;4981335;28;20503;-66
2022/02/23 04:20:25;;;;;;;3.10;1.83;;;-0.60;99.90;;;;;;4995600;28;20076;-63
2022/02/23 04:22:52;;;;;;;3.20;1.33;;;-0.60;99.90;;;;;;4994256;28;20145;-65
2022/02/23 04:25:19;;;;;;;5.15;1.85;;;-0.60;99.90;;;;;;4993692;28;20128;-68
2022/02/23 04:27:48;;;;;;;2.20;1.52;;;-0.60;99.90;;;;;;4994712;28;20049;-66
2022/02/23 04:30:15;;;;;;;4.40;1.33;;;-0.60;99.90;;;;;;4995635;28;20596;-64
2022/02/23 04:32:42;;;;;;;4.03;1.67;;;-0.50;99.90;;;;;;4994216;28;20554;-67
2022/02/23 04:35:09;;;;;;;6.10;1.95;;;-0.50;99.90;;;;;;4994458;28;20554;-66
2022/02/23 04:37:36;;;;;;;1.60;1.40;;;-0.50;99.90;;;;;;4993189;28;20054;-64
2022/02/23 04:40:04;;;;;;;4.13;1.70;;;-0.50;99.90;;;;;;4994612;28;21642;-64
2022/02/23 04:42:31;;;;;;;3.22;1.83;;;-0.40;99.90;;;;;;4994677;28;20053;-66
2022/02/23 04:45:00;;;;;;;4.32;2.53;;;-0.40;99.90;;;;;;4994432;28;20065;-64
2022/02/23 04:47:29;;;;;;;1.60;1.45;;;-0.40;99.90;;;;;;4991889;28;20574;-66
2022/02/23 04:49:56;;;;;;;2.10;1.70;;;-0.40;99.90;;;;;;4993288;28;20073;-64
2022/02/23 04:52:26;;;;;;;2.58;1.95;;;-0.40;99.90;;;;;;4994050;28;20436;-65
2022/02/23 04:54:56;;;;;;;1.85;1.70;;;-0.40;99.90;;;;;;4993463;28;20148;-65
2022/02/23 04:57:23;;;;;;;3.92;2.35;;;-0.40;99.90;;;;;;4993447;28;21097;-65
2022/02/23 04:59:50;;;;;;;5.60;2.85;;;-0.40;99.90;;;;;;4993401;28;20147;-67
2022/02/23 05:02:17;;;;;;;3.80;2.10;;;-0.40;99.90;;;;;;4994289;28;20084;-64
2022/02/23 05:04:44;;;;;;;4.60;2.40;;;-0.40;99.90;;;;;;4993658;28;20114;-66
2022/02/23 05:07:13;;;;;;;2.38;2.17;;;-0.40;99.90;;;;;;4967082;28;20077;-64
2022/02/23 05:09:41;;;;;;;2.75;2.28;;;-0.40;99.90;;;;;;4928170;28;20054;-63
2022/02/23 05:12:08;;;;;;;3.38;3.08;;;-0.30;99.90;;;;;;976535;28;10002005;-67
2022/02/23 05:14:36;;;;;;;7.13;2.53;;;-0.30;99.90;;;;;;4986277;28;20046;-67
2022/02/23 05:17:03;;;;;;;5.38;2.53;;;-0.30;99.90;;;;;;4994349;28;20781;-65
2022/02/23 05:19:32;;;;;;;3.90;2.13;;;-0.30;99.90;;;;;;4991681;28;20058;-67
2022/02/23 05:21:59;;;;;;;5.25;2.60;;;-0.30;99.90;;;;;;4994637;28;20068;-67
2022/02/23 05:24:28;;;;;;;3.63;2.58;;;-0.30;99.90;;;;;;4992147;28;20141;-66
2022/02/23 05:26:58;;;;;;;6.50;3.40;;;-0.20;99.90;;;;;;4994357;28;20100;-64
2022/02/23 05:29:25;;;;;;;7.07;3.55;;;-0.20;99.90;;;;;;4991725;28;20588;-69
2022/02/23 05:31:53;;;;;;;3.38;2.28;;;-0.20;99.90;;;;;;4994417;28;20125;-64
2022/02/23 05:34:20;;;;;;;4.43;2.63;;;-0.20;99.90;;;;;;4993858;28;20049;-65
2022/02/23 05:36:47;;;;;;;3.47;2.40;;;-0.20;99.90;;;;;;4994380;28;20160;-71
2022/02/23 05:39:14;;;;;;;2.60;2.35;;;-0.20;99.90;;;;;;4992344;28;20069;-67
2022/02/23 05:41:41;;;;;;;3.30;2.20;;;-0.10;99.90;;;;;;4974910;28;20174;-65
2022/02/23 05:44:08;;;;;;;4.63;2.22;;;-0.10;99.90;;;;;;4974449;28;20086;-68
2022/02/23 05:46:35;;;;;;;2.97;2.08;;;-0.20;99.90;;;;;;4972089;28;20056;-66
2022/02/23 05:49:20;;;;;;;4.71;2.41;;;-0.10;99.90;;;;;;4073543;28;10002065;-69
2022/02/23 05:51:47;;;;;;;3.80;2.65;;;-0.10;99.90;;;;;;2399749;28;10002024;-65
2022/02/23 05:54:16;;;;;;;4.18;2.17;;;-0.10;99.90;;;;;;4994735;28;20046;-67
2022/02/23 05:56:43;;;;;;;4.38;1.77;;;-0.10;99.90;;;;;;4992067;28;20082;-67
2022/02/23 05:59:12;;;;;;;2.93;1.70;;;-0.10;99.90;;;;;;4995254;28;20147;-66
2022/02/23 06:01:39;;;;;;;3.47;1.77;;;-0.10;99.90;;;;;;4996790;28;20701;-67
2022/02/23 06:04:06;;;;;;;2.67;1.45;;;-0.10;99.90;;;;;;4997105;28;20133;-66
2022/02/23 06:06:33;;;;;;;2.47;1.95;;;-0.10;99.90;;;;;;4997233;28;20076;-67
2022/02/23 06:09:00;;;;;;;2.60;1.77;;;0.00;99.90;;;;;;4996897;28;20081;-67
2022/02/23 06:11:27;;;;;;;1.73;1.63;;;0.00;99.90;;;;;;4995721;28;20213;-68
2022/02/23 06:13:54;;;;;;;2.65;2.08;;;0.00;99.90;;;;;;4997367;28;20050;-65
2022/02/23 06:16:23;;;;;;;2.70;1.85;;;0.00;99.90;;;;;;4997930;28;20082;-68
2022/02/23 06:18:56;;;;;;;2.25;1.95;;;0.00;99.90;;;;;;4983023;28;20136;-69
2022/02/23 06:21:24;;;;;;;2.30;2.05;;;0.00;99.90;;;;;;4971420;28;20438;-64
2022/02/23 06:23:52;;;;;;;3.22;1.67;;;0.10;99.90;;;;;;4979805;28;20128;-67
2022/02/23 06:26:20;;;;;;;3.33;2.28;;;0.10;99.90;;;;;;4995688;28;20061;-68
2022/02/23 06:28:47;;;;;;;2.15;1.77;;;0.10;99.90;;;;;;4997184;28;20143;-66
2022/02/23 06:31:15;;;;;;;2.17;1.83;;;0.10;99.90;;;;;;4979073;28;20069;-65
2022/02/23 06:33:44;;;;;;;4.47;2.47;;;0.20;99.90;;;;;;4995686;28;20046;-65
2022/02/23 06:36:11;;;;;;;5.50;2.15;;;0.20;99.90;;;;;;4996903;28;20157;-64
2022/02/23 06:38:40;;;;;;;3.05;2.25;;;0.20;99.90;;;;;;4995626;28;20136;-64
2022/02/23 06:41:10;;;;;;;3.00;2.50;;;0.20;99.90;;;;;;4996516;28;20057;-64
2022/02/23 06:43:37;;;;;;;2.33;1.83;;;0.30;99.90;;;;;;4993703;28;20125;-66
2022/02/23 06:46:04;;;;;;;4.00;1.92;;;0.30;99.90;;;;;;4997220;28;20057;-66
2022/02/23 06:48:32;;;;;;;4.03;2.20;;;0.30;99.90;;;;;;4995758;28;20046;-66
2022/02/23 06:50:59;;;;;;;2.33;1.83;;;0.40;99.90;;;;;;4996922;28;20520;-64
2022/02/23 06:53:27;;;;;;;3.13;2.00;;;0.40;99.90;;;;;;4990539;28;20544;-70
2022/02/23 06:55:54;;;;;;;3.72;2.33;;;0.40;99.90;;;;;;4976775;28;20138;-64
2022/02/23 06:58:21;;;;;;;3.15;2.85;;;0.50;99.90;;;;;;4975561;28;20556;-67
2022/02/23 07:00:48;;;;;;;2.35;2.05;;;0.50;99.90;;;;;;4976906;28;20054;-67
2022/02/23 07:03:16;;;;;;;4.95;2.67;;;0.50;99.90;;;;;;4974317;28;21538;-67
2022/02/23 07:05:43;;;;;;;3.50;3.20;;;0.50;99.90;;;;;;4974837;28;20047;-66
2022/02/23 07:08:10;;;;;;;4.57;2.63;;;0.60;99.90;;;;;;4974904;28;20782;-66
2022/02/23 07:10:37;;;;;;;4.43;2.80;;;0.60;99.90;;;;;;4983128;28;20081;-65
2022/02/23 07:13:07;;;;;;;4.70;3.15;;;0.60;99.90;;;;;;4995136;28;20046;-67
2022/02/23 07:15:35;;;;;;;5.13;3.85;;;0.60;99.90;;;;;;4993081;28;20050;-68
2022/02/23 07:18:02;;;;;;;3.40;2.85;;;0.70;99.90;;;;;;4995214;28;20073;-66
2022/02/23 07:20:29;;;;;;;3.30;2.78;;;0.70;99.90;;;;;;4993617;28;20151;-65
2022/02/23 07:22:56;;;;;;;6.20;2.78;;;0.70;99.90;;;;;;4995686;28;20050;-66
2022/02/23 07:25:23;;;;;;;4.85;3.13;;;0.80;99.90;;;;;;4992954;28;20242;-69
2022/02/23 07:27:50;;;;;;;3.95;2.10;;;0.80;99.90;;;;;;4996422;28;20192;-63
2022/02/23 07:30:18;;;;;;;2.85;2.58;;;0.80;99.90;;;;;;4994788;28;20212;-66
2022/02/23 07:32:48;;;;;;;3.17;2.67;;;0.80;99.90;;;;;;4995442;28;20045;-66
2022/02/23 07:35:15;;;;;;;3.00;2.70;;;0.90;99.90;;;;;;4992994;28;20049;-65
2022/02/23 07:37:44;;;;;;;3.58;2.33;;;0.90;99.90;;;;;;4995707;28;20054;-68
2022/02/23 07:40:22;;;;;;;2.67;2.45;;;0.90;99.90;;;;;;4994027;28;20131;-67
2022/02/23 07:43:09;;;;;;;3.25;1.90;;;0.90;99.90;;;;;;4995150;28;20148;-67
2022/02/23 07:45:40;;;;;;;2.67;2.47;;;0.90;99.90;;;;;;4992986;28;20133;-63
2022/02/23 07:48:08;;;;;;;4.55;2.60;;;1.00;99.90;;;;;;4994478;28;20908;-67
2022/02/23 07:50:37;;;;;;;3.65;2.40;;;1.00;99.90;;;;;;4983497;28;20089;-66
2022/02/23 07:53:05;;;;;;;3.50;2.70;;;1.00;99.90;;;;;;4974998;28;20155;-65
2022/02/23 07:55:32;;;;;;;4.82;2.65;;;1.00;99.90;;;;;;4973511;28;20148;-68
2022/02/23 07:58:03;;;;;;;3.42;2.47;;;1.00;99.90;;;;;;4975270;28;20687;-64
2022/02/23 08:00:31;;;;;;;2.97;2.28;;;1.10;99.90;;;;;;4975650;28;20121;-66
2022/02/23 08:02:58;;;;;;;4.75;2.67;;;1.10;99.90;;;;;;4974430;28;20061;-65
2022/02/23 08:05:26;;;;;;;2.30;1.73;;;1.20;99.90;;;;;;4974773;28;20073;-63
2022/02/23 08:07:55;;;;;;;1.65;1.55;;;1.20;99.90;;;;;;4982859;28;20054;-65
2022/02/23 08:10:23;;;;;;;2.87;1.97;;;1.20;99.90;;;;;;4995162;28;20067;-64
2022/02/23 08:12:55;;;;;;;1.50;1.38;;;1.20;99.90;;;;;;4993561;28;20374;-65
2022/02/23 08:20:53;;;;;;;2.58;1.67;;;1.30;99.90;;;;;;4974823;28;20161;-65
2022/02/23 08:23:20;;;;;;;1.40;1.30;;;1.30;99.90;;;;;;4973721;28;20082;-64
2022/02/23 08:25:50;;;;;;;2.15;1.35;;;1.30;99.90;;;;;;4980158;28;20069;-64
2022/02/23 08:28:17;;;;;;;2.95;1.42;;;1.40;99.90;;;;;;4994782;28;20479;-64
2022/02/23 08:30:46;;;;;;;2.42;1.58;;;1.40;99.90;;;;;;4994585;28;20488;-64
2022/02/23 08:33:14;;;;;;;2.08;1.38;;;1.40;99.90;;;;;;4993063;28;20054;-65
2022/02/23 08:35:44;;;;;;;1.85;1.45;;;1.40;99.90;;;;;;4994268;28;20085;-64
2022/02/23 08:38:12;;;;;;;3.22;1.92;;;1.40;99.90;;;;;;4994091;28;20081;-68
2022/02/23 08:40:41;;;;;;;3.67;1.95;;;1.40;99.90;;;;;;4994185;28;20049;-64
2022/02/23 08:43:08;;;;;;;2.90;2.10;;;1.40;99.90;;;;;;4994031;28;20085;-63
2022/02/23 08:45:35;;;;;;;3.50;2.42;;;1.50;99.90;;;;;;4975273;28;20757;-64
2022/02/23 08:48:07;;;;;;;2.53;1.80;;;1.50;99.90;;;;;;4985686;28;20405;-65
2022/02/23 08:50:34;;;;;;;6.55;2.95;;;1.50;99.90;;;;;;4975623;28;20117;-63
2022/02/23 08:53:01;;;;;;;5.03;2.22;;;1.60;99.90;;;;;;4974420;28;20188;-64
2022/02/23 08:55:47;;;;;;;3.26;2.32;;;1.60;99.90;;;;;;4463238;28;10001453;-63
2022/02/23 08:58:15;;;;;;;2.33;1.83;;;1.60;99.90;;;;;;1375751;28;10001992;-64
2022/02/23 09:00:42;;;;;;;2.40;2.00;;;1.60;99.90;;;;;;4983444;28;20307;-67
2022/02/23 09:03:09;;;;;;;2.75;2.00;;;1.70;99.90;;;;;;4990324;28;20046;-66
2022/02/23 09:05:36;;;;;;;2.25;1.45;;;1.80;99.90;;;;;;4974765;28;20054;-65
2022/02/23 09:08:03;;;;;;;3.17;1.50;;;1.80;99.90;;;;;;4973619;28;20054;-66
2022/02/23 09:10:30;;;;;;;1.83;1.70;;;1.90;99.90;;;;;;4976228;28;20057;-66
2022/02/23 09:12:58;;;;;;;2.08;1.75;;;1.90;99.90;;;;;;4974640;28;20078;-67
2022/02/23 09:15:25;;;;;;;5.55;2.85;;;2.00;99.90;;;;;;4974334;28;20144;-65
2022/02/23 09:17:52;;;;;;;4.22;2.85;;;2.10;99.90;;;;;;4974063;28;20145;-64
2022/02/23 09:20:19;;;;;;;2.70;2.05;;;2.10;99.90;;;;;;4976123;28;20215;-63
2022/02/23 09:22:46;;;;;;;3.45;2.03;;;2.10;99.90;;;;;;4987536;28;21607;-64
2022/02/23 09:25:13;;;;;;;3.22;2.40;;;2.10;99.90;;;;;;4992417;28;20556;-68
2022/02/23 09:27:40;;;;;;;4.05;2.83;;;2.20;99.90;;;;;;4994395;28;20108;-66
2022/02/23 09:30:08;;;;;;;5.10;2.65;;;2.10;99.90;;;;;;4992314;28;20222;-67
2022/02/23 09:32:51;;;;;;;3.15;2.65;;;2.10;99.90;;;;;;4014661;28;10002068;-64
2022/02/23 09:35:19;;;;;;;4.93;3.08;;;2.20;99.90;;;;;;2401082;28;10002019;-65
2022/02/23 09:37:47;;;;;;;5.22;4.05;;;2.20;99.90;;;;;;4994310;28;21574;-62
2022/02/23 09:40:15;;;;;;;7.43;4.25;;;2.20;99.90;;;;;;4984916;28;21397;-64
2022/02/23 09:42:43;;;;;;;7.13;4.47;;;2.20;99.90;;;;;;4987074;28;20052;-64
2022/02/23 09:45:12;;;;;;;10.00;5.90;;;2.20;99.90;;;;;;4992308;28;20054;-65
2022/02/23 09:47:42;;;;;;;8.48;5.22;;;2.10;99.90;;;;;;4994475;28;20049;-63
2022/02/23 09:50:18;;;;;;;5.15;4.43;;;2.20;99.90;;;;;;4993848;28;20046;-66
2022/02/23 09:52:47;;;;;;;6.72;4.38;;;2.20;99.90;;;;;;4993939;28;20672;-64
2022/02/23 09:55:15;;;;;;;4.07;3.60;;;2.20;99.90;;;;;;4993133;28;20139;-64
2022/02/23 09:57:42;;;;;;;5.07;3.03;;;2.20;99.90;;;;;;4993045;28;20667;-64
2022/02/23 10:00:11;;;;;;;4.18;2.90;;;2.30;99.90;;;;;;4994471;28;20457;-65
2022/02/23 10:02:38;;;;;;;3.75;2.42;;;2.30;99.90;;;;;;4993571;28;20108;-66
2022/02/23 10:05:07;;;;;;;3.65;2.42;;;2.30;99.90;;;;;;4992341;28;20140;-63
2022/02/23 10:07:40;;;;;;;1.75;1.40;;;2.40;99.90;;;;;;4991359;28;20057;-66
2022/02/23 10:10:08;;;;;;;1.80;1.60;;;2.50;99.90;;;;;;4994106;28;21267;-66
2022/02/23 10:12:37;;;;;;;7.35;2.60;;;2.50;99.90;;;;;;4981614;28;20070;-64
2022/02/23 10:15:12;;;;;;;2.13;1.05;;;2.60;99.90;;;;;;4975042;28;20758;-64
2022/02/23 10:17:48;;;;;;;1.52;1.23;;;2.70;99.90;;;;;;4987810;28;20141;-65
2022/02/23 10:20:21;;;;;;;4.13;1.50;;;2.70;99.90;;;;;;4973867;28;20154;-65
2022/02/23 10:22:53;;;;;;;2.75;1.50;;;2.80;99.90;;;;;;4974502;28;20049;-64
2022/02/23 10:25:28;;;;;;;1.10;0.90;;;2.80;99.90;;;;;;4971235;28;20424;-64
2022/02/23 10:28:09;;;;;;;4.18;1.25;;;2.90;99.90;;;;;;4975155;28;20061;-63
2022/02/23 10:30:54;;;;;;;4.35;2.05;;;2.90;99.90;;;;;;4973787;28;20566;-63
2022/02/23 10:33:24;;;;;;;3.55;1.60;;;2.90;99.90;;;;;;4971524;28;20165;-64
2022/02/23 10:36:16;;;;;;;1.65;1.40;;;2.90;99.90;;;;;;4974798;28;20042;-65
2022/02/23 10:38:57;;;;;;;4.70;1.73;;;2.90;99.90;;;;;;4984860;28;20050;-65
2022/02/23 10:41:30;;;;;;;2.03;1.67;;;3.00;99.90;;;;;;4992037;28;20869;-64
2022/02/23 10:43:58;;;;;;;2.33;1.38;;;3.10;99.90;;;;;;4992771;28;21656;-64
2022/02/23 10:46:25;;;;;;;2.25;1.40;;;3.20;99.90;;;;;;4997007;28;20057;-63
2022/02/23 10:49:04;;;;;;;2.22;1.55;;;3.30;99.90;;;;;;4996562;28;20160;-65
2022/02/23 10:51:35;;;;;;;1.90;1.52;;;3.40;99.90;;;;;;4995512;28;20068;-63
2022/02/23 10:54:13;;;;;;;1.35;1.15;;;3.40;99.90;;;;;;4996923;28;20878;-64
2022/02/23 10:56:44;;;;;;;4.50;2.80;;;3.30;99.90;;;;;;4995975;28;20109;-65
2022/02/23 10:59:12;;;;;;;2.80;2.33;;;3.30;99.90;;;;;;4996268;28;20141;-64
2022/02/23 11:01:42;;;;;;;4.47;2.15;;;3.30;99.90;;;;;;4995754;28;21480;-65
2022/02/23 11:04:10;;;;;;;3.40;2.22;;;3.50;99.90;;;;;;4997241;28;20152;-64
2022/02/23 11:06:38;;;;;;;3.33;2.67;;;3.50;99.90;;;;;;4995739;28;20102;-65
2022/02/23 11:09:07;;;;;;;3.17;2.15;;;3.40;99.90;;;;;;4996834;28;20053;-69
2022/02/23 11:11:34;;;;;;;3.45;1.73;;;3.40;99.90;;;;;;4993725;28;20658;-64
2022/02/23 11:14:02;;;;;;;2.65;1.98;;;3.20;99.90;;;;;;4997285;28;20420;-64
2022/02/23 11:16:31;;;;;;;3.67;1.80;;;3.10;99.90;;;;;;4995601;28;20148;-66
2022/02/23 11:19:00;;;;;;;2.85;1.75;;;3.10;99.90;;;;;;4996851;28;20050;-66
2022/02/23 11:21:37;;;;;;;2.83;2.10;;;3.00;99.90;;;;;;4993914;28;20082;-64
2022/02/23 11:24:10;;;;;;;2.15;1.67;;;3.00;99.90;;;;;;4996270;28;20554;-65
2022/02/23 11:26:39;;;;;;;1.42;1.33;;;3.00;99.90;;;;;;4994916;28;20076;-65
2022/02/23 11:29:26;;;;;;;4.20;2.08;;;3.00;99.90;;;;;;4995626;28;20181;-64
2022/02/23 11:31:54;;;;;;;2.05;1.65;;;2.90;99.90;;;;;;4975647;28;20162;-65
2022/02/23 11:34:24;;;;;;;2.30;2.10;;;3.00;99.90;;;;;;4976151;28;20138;-63
2022/02/23 11:36:55;;;;;;;3.83;2.65;;;2.90;99.90;;;;;;4990055;28;20069;-64
2022/02/23 11:39:35;;;;;;;;;;;2.90;99.90;;;;;;4994882;28;20524;-65
2022/02/23 11:42:07;;;;;;;2.15;1.65;;;2.90;99.90;;;;;;4995767;28;19936;-65
2022/02/23 11:44:39;;;;;;;2.95;1.85;;;2.80;99.90;;;;;;4995408;28;20654;-64
2022/02/23 11:47:11;;;;;;;3.50;2.38;;;2.80;99.90;;;;;;4979128;28;20051;-64
2022/02/23 11:49:49;;;;;;;2.38;1.80;;;2.80;99.90;;;;;;4994967;28;20045;-65
2022/02/23 11:52:18;;;;;;;3.05;2.70;;;2.80;99.90;;;;;;4994129;28;20523;-68
2022/02/23 11:54:53;;;;;;;4.20;2.42;;;2.80;99.90;;;;;;4994170;28;20467;-64
2022/02/23 11:57:40;;;;;;;3.53;1.88;;;2.70;99.90;;;;;;4992758;28;20061;-68
2022/02/23 12:00:09;;;;;;;4.53;2.33;;;2.80;99.90;;;;;;4996014;28;20052;-65
2022/02/23 12:02:36;;;;;;;2.75;1.70;;;2.80;99.90;;;;;;4993548;28;20089;-64
2022/02/23 12:05:05;;;;;;;2.17;1.70;;;2.80;99.90;;;;;;4994914;28;20042;-65
2022/02/23 12:07:46;;;;;;;1.45;1.10;;;2.80;99.90;;;;;;4973382;28;20146;-65
2022/02/23 12:10:14;;;;;;;2.15;1.23;;;2.70;99.90;;;;;;4982460;28;20089;-65
2022/02/23 12:12:46;;;;;;;4.05;1.40;;;2.70;99.90;;;;;;4982314;28;20124;-66
2022/02/23 12:15:18;;;;;;;2.40;1.75;;;2.80;99.90;;;;;;4972717;28;20248;-65
2022/02/23 12:17:59;;;;;;;1.73;1.00;;;2.90;99.90;;;;;;4981115;28;20148;-66
2022/02/23 12:20:37;;;;;;;2.17;1.05;;;3.10;99.90;;;;;;4994232;28;20407;-65
2022/02/23 12:23:18;;;;;;;2.03;1.60;;;3.30;99.90;;;;;;4994964;28;20155;-65
2022/02/23 12:26:10;;;;;;;2.50;1.20;;;3.40;99.90;;;;;;4993055;28;20580;-65
2022/02/23 12:28:39;;;;;;;1.35;1.17;;;3.40;99.90;;;;;;4994770;28;20050;-67
2022/02/23 12:31:12;;;;;;;1.55;1.15;;;3.30;99.90;;;;;;4995343;28;20136;-66
2022/02/23 12:33:41;;;;;;;2.88;1.42;;;3.30;99.90;;;;;;4973174;28;20062;-66
2022/02/23 12:36:31;;;;;;;1.15;0.98;;;3.20;99.90;;;;;;4986026;28;20053;-63
2022/02/23 12:38:59;;;;;;;0.73;0.47;;;3.10;99.90;;;;;;4993864;28;20096;-65
2022/02/23 12:41:32;;;;;;;5.07;0.90;;;3.00;99.90;;;;;;4993103;28;20167;-65
2022/02/23 12:44:12;;;;;;;2.53;1.00;;;3.00;99.90;;;;;;4987232;28;20042;-66
2022/02/23 12:46:46;;;;;;;3.35;1.75;;;3.00;99.90;;;;;;4987059;28;20053;-68
2022/02/23 12:49:15;;;;;;;3.13;1.00;;;3.00;99.90;;;;;;4993655;28;20543;-64
2022/02/23 12:51:44;;;;;;;1.60;0.80;;;3.00;99.90;;;;;;4993909;28;20152;-64
2022/02/23 12:54:13;;;;;;;1.55;0.75;;;3.10;99.90;;;;;;4995006;28;20069;-65
2022/02/23 12:56:46;;;;;;;1.77;0.82;;;3.10;99.90;;;;;;4994043;28;20169;-66
2022/02/23 12:59:19;;;;;;;0.75;0.70;;;3.00;99.90;;;;;;4993754;28;20050;-65
2022/02/23 13:01:51;;;;;;;0.95;0.60;;;2.90;99.90;;;;;;4994993;28;20053;-65
2022/02/23 13:04:19;;;;;;;1.17;0.90;;;2.80;99.90;;;;;;4994109;28;20497;-64
2022/02/23 13:06:49;;;;;;;1.67;1.02;;;2.70;99.90;;;;;;4994553;28;20046;-64